Time;durP1;ratioP1;P1;durP2;ratioP2;P2;SDS_P1;SDS_P2;PMS_P1;PMS_P2;Temp;Humidity;BMP_temperature;BMP_pressure;BME280_temperature;BME280_humidity;BME280_pressure;Samples;Min_cycle;Max_cycle;Signal;HPM_P1;HPM_P2
2022/12/09 00:01:29;;;;;;;21.67;10.90;;;;;;;-2.78;100.00;97833.88;4988378;28;20037;-74
2022/12/09 00:03:55;;;;;;;25.75;11.20;;;;;;;-2.79;100.00;97852.56;4994510;28;20030;-74
2022/12/09 00:06:25;;;;;;;23.83;10.68;;;;;;;-2.77;100.00;97858.56;4993947;28;20069;-74
2022/12/09 00:08:52;;;;;;;28.83;11.82;;;;;;;-2.72;100.00;97848.38;5009352;28;20033;-74
2022/12/09 00:11:19;;;;;;;24.15;10.95;;;;;;;-2.95;100.00;97821.38;5004693;28;20502;-74
2022/12/09 00:13:52;;;;;;;24.55;10.65;;;;;;;-2.83;100.00;97824.69;4997812;28;20036;-74
2022/12/09 00:16:17;;;;;;;25.85;10.80;;;;;;;-2.97;100.00;97821.53;5001210;28;20038;-74
2022/12/09 00:18:43;;;;;;;21.88;10.75;;;;;;;-2.95;100.00;97824.03;5007848;28;20503;-74
2022/12/09 00:21:20;;;;;;;25.85;11.07;;;;;;;-2.91;100.00;97838.63;5002276;28;20100;-74
2022/12/09 00:23:45;;;;;;;28.23;11.95;;;;;;;-3.13;100.00;97810.69;4999602;28;20519;-73
2022/12/09 00:26:11;;;;;;;33.00;12.27;;;;;;;-2.90;100.00;97830.56;4997458;28;20038;-73
2022/12/09 00:28:37;;;;;;;27.27;11.30;;;;;;;-2.94;100.00;97838.91;4995909;28;20712;-75
2022/12/09 00:31:04;;;;;;;28.83;10.95;;;;;;;-3.06;100.00;97811.81;5001215;28;20038;-73
2022/12/09 00:33:30;;;;;;;24.10;10.95;;;;;;;-3.12;100.00;97812.34;5008181;28;20096;-73
2022/12/09 00:36:01;;;;;;;23.48;10.30;;;;;;;-3.20;100.00;97804.28;4998201;28;20035;-73
2022/12/09 00:38:26;;;;;;;23.65;9.98;;;;;;;-3.13;100.00;97824.75;4998588;28;20501;-73
2022/12/09 00:40:52;;;;;;;20.77;9.27;;;;;;;-3.21;100.00;97826.44;4996046;28;20048;-73
2022/12/09 00:43:17;;;;;;;17.52;8.38;;;;;;;-3.44;100.00;97799.44;4993195;28;20034;-73
2022/12/09 00:45:44;;;;;;;21.05;8.45;;;;;;;-3.40;100.00;97825.47;4986280;28;20404;-73
2022/12/09 00:48:09;;;;;;;19.05;8.27;;;;;;;-3.55;100.00;97818.94;4993788;28;20433;-73
2022/12/09 00:50:34;;;;;;;16.38;6.97;;;;;;;-3.40;100.00;97833.41;5007441;28;20022;-73
2022/12/09 00:52:59;;;;;;;13.43;6.93;;;;;;;-3.63;100.00;97821.44;4997101;28;20022;-73
2022/12/09 00:55:25;;;;;;;15.25;6.78;;;;;;;-3.57;100.00;97818.22;4998591;28;20630;-73
2022/12/09 00:57:50;;;;;;;13.75;6.47;;;;;;;-3.55;100.00;97819.75;4997294;28;20113;-73
2022/12/09 01:00:16;;;;;;;13.23;6.93;;;;;;;-3.70;100.00;97799.16;4997111;28;20062;-73
2022/12/09 01:02:41;;;;;;;16.30;7.55;;;;;;;-3.63;100.00;97824.91;5006764;28;20022;-73
2022/12/09 01:05:07;;;;;;;15.00;6.30;;;;;;;-3.71;100.00;97829.22;4995225;28;20034;-73
2022/12/09 01:07:32;;;;;;;12.32;6.60;;;;;;;-3.70;100.00;97825.59;4997567;28;20058;-73
2022/12/09 01:09:57;;;;;;;12.57;6.55;;;;;;;-3.59;100.00;97833.38;4996915;28;20037;-73
2022/12/09 01:12:22;;;;;;;12.68;5.75;;;;;;;-3.60;100.00;97832.56;4998461;28;20400;-73
2022/12/09 01:14:48;;;;;;;12.65;6.53;;;;;;;-3.77;100.00;97822.69;4995948;28;20034;-72
2022/12/09 01:17:13;;;;;;;12.93;6.40;;;;;;;-3.70;100.00;97834.34;4988897;28;20115;-73
2022/12/09 01:19:39;;;;;;;15.90;6.07;;;;;;;-3.69;100.00;97838.69;4996957;28;20037;-72
2022/12/09 01:22:05;;;;;;;21.52;7.72;;;;;;;-3.71;100.00;97830.06;4997183;28;20391;-72
2022/12/09 01:24:30;;;;;;;22.02;8.27;;;;;;;-3.75;100.00;97828.66;4994210;28;20129;-73
2022/12/09 01:26:55;;;;;;;19.27;8.88;;;;;;;-3.69;100.00;97825.47;4993017;28;20551;-73
2022/12/09 01:29:20;;;;;;;15.93;8.45;;;;;;;-3.78;100.00;97813.06;5003034;28;20034;-76
2022/12/09 01:31:46;;;;;;;20.25;9.00;;;;;;;-3.63;100.00;97843.41;4994822;28;20456;-73
2022/12/09 01:34:11;;;;;;;19.52;8.90;;;;;;;-3.83;100.00;97816.13;4988173;28;20030;-73
2022/12/09 01:36:37;;;;;;;21.33;9.15;;;;;;;-3.91;100.00;97815.13;4992967;28;20093;-72
2022/12/09 01:39:03;;;;;;;16.65;6.90;;;;;;;-3.68;100.00;97834.22;4992688;28;20535;-73
2022/12/09 01:41:29;;;;;;;17.92;7.35;;;;;;;-4.02;100.00;97800.25;4992886;28;20022;-73
2022/12/09 01:44:14;;;;;;;17.85;7.30;;;;;;;-3.94;100.00;97824.16;4996451;28;20431;-72
2022/12/09 01:46:40;;;;;;;14.18;7.07;;;;;;;-4.07;100.00;97797.19;4993398;28;20073;-73
2022/12/09 01:49:08;;;;;;;18.17;7.13;;;;;;;-4.01;100.00;97815.97;4994567;28;20113;-73
2022/12/09 01:51:35;;;;;;;14.07;7.30;;;;;;;-4.06;100.00;97822.59;5009462;28;20488;-73
2022/12/09 01:54:01;;;;;;;15.15;7.38;;;;;;;-4.19;100.00;97788.53;4991853;28;20033;-73
2022/12/09 01:56:31;;;;;;;19.90;9.55;;;;;;;-3.91;100.00;97821.25;4991515;28;20030;-73
2022/12/09 01:59:08;;;;;;;29.88;9.30;;;;;;;-4.16;100.00;97772.44;5000804;28;20025;-73
2022/12/09 02:01:34;;;;;;;23.90;9.68;;;;;;;-3.89;100.00;97805.28;4993425;28;20105;-73
2022/12/09 02:04:00;;;;;;;22.10;9.20;;;;;;;-3.87;100.00;97806.81;4986801;28;20026;-73
2022/12/09 02:06:25;;;;;;;24.30;9.80;;;;;;;-3.87;100.00;97784.84;4997176;28;20068;-73
2022/12/09 02:08:51;;;;;;;23.98;10.80;;;;;;;-3.83;100.00;97808.19;4992480;28;20072;-73
2022/12/09 02:11:40;;;;;;;21.70;10.38;;;;;;;-3.88;100.00;97807.75;4993196;28;20247;-73
2022/12/09 02:14:27;;;;;;;21.38;8.38;;;;;;;-3.88;100.00;97797.19;4964275;28;20507;-73
2022/12/09 02:17:11;;;;;;;24.77;10.60;;;;;;;-4.08;100.00;97804.28;4985093;28;20084;-73
2022/12/09 02:20:00;;;;;;;21.98;9.70;;;;;;;-4.23;100.00;97795.06;4998686;28;20541;-73
2022/12/09 02:22:36;;;;;;;24.00;9.93;;;;;;;-4.31;100.00;97789.63;5016880;28;20026;-74
2022/12/09 02:25:16;;;;;;;18.45;9.18;;;;;;;-4.37;100.00;97790.16;4998142;28;20058;-74
2022/12/09 02:28:06;;;;;;;18.38;8.88;;;;;;;-4.34;100.00;97782.81;4997086;28;20036;-74
2022/12/09 02:31:14;;;;;;;18.05;7.88;;;;;;;-4.67;100.00;97739.06;5010723;28;20023;-74
2022/12/09 02:34:10;;;;;;;15.35;7.07;;;;;;;-4.52;100.00;97766.75;4994589;28;20060;-74
2022/12/09 02:37:01;;;;;;;14.45;7.00;;;;;;;-4.70;100.00;97748.09;4991854;28;20373;-74
2022/12/09 02:39:41;;;;;;;15.93;7.07;;;;;;;-4.49;100.00;97766.50;4978922;28;20615;-74
2022/12/09 02:42:10;;;;;;;13.07;6.25;;;;;;;-4.68;100.00;97740.88;5002481;28;20092;-74
2022/12/09 02:44:37;;;;;;;16.85;6.65;;;;;;;-4.49;100.00;97761.22;4996090;28;20054;-74
2022/12/09 02:47:07;;;;;;;18.63;7.22;;;;;;;-4.50;100.00;97751.63;4997119;28;20031;-74
2022/12/09 02:49:33;;;;;;;15.55;6.63;;;;;;;-4.47;100.00;97755.81;4998621;28;20026;-74
2022/12/09 02:52:02;;;;;;;14.63;6.72;;;;;;;-4.47;100.00;97722.31;4994588;28;20084;-74
2022/12/09 02:54:31;;;;;;;16.67;7.15;;;;;;;-4.51;100.00;97720.09;4996206;28;20038;-74
2022/12/09 02:57:01;;;;;;;18.88;7.50;;;;;;;-4.26;100.00;97751.28;4998420;28;20030;-74
2022/12/09 02:59:27;;;;;;;15.85;7.00;;;;;;;-4.44;100.00;97732.59;4994436;28;20026;-74
2022/12/09 03:02:20;;;;;;;13.35;6.50;;;;;;;-4.41;100.00;97747.34;4996577;28;20027;-74
2022/12/09 03:04:57;;;;;;;21.90;7.03;;;;;;;-4.53;100.00;97743.13;5009465;28;20010;-76
2022/12/09 03:07:39;;;;;;;17.33;6.75;;;;;;;-4.58;100.00;97737.44;5019492;28;20098;-74
2022/12/09 03:10:15;;;;;;;21.15;7.38;;;;;;;-4.80;100.00;97714.72;5019207;28;20022;-74
2022/12/09 03:12:46;;;;;;;17.90;6.78;;;;;;;-4.80;100.00;97720.00;5018608;28;20022;-74
2022/12/09 03:15:16;;;;;;;16.08;6.93;;;;;;;-4.69;100.00;97717.25;4997841;28;20614;-74
2022/12/09 03:17:43;;;;;;;16.08;6.10;;;;;;;-4.59;100.00;97717.28;5000956;28;20516;-73
2022/12/09 03:20:15;;;;;;;10.82;5.88;;;;;;;-4.60;100.00;97710.34;4986148;28;20097;-73
2022/12/09 03:22:44;;;;;;;15.93;5.88;;;;;;;-4.52;100.00;97713.97;5001710;28;20106;-75
2022/12/09 03:25:18;;;;;;;14.13;5.85;;;;;;;-4.70;100.00;97694.50;4991748;28;20413;-73
2022/12/09 03:27:51;;;;;;;12.63;4.90;;;;;;;-4.70;100.00;97705.88;5005322;28;20030;-75
2022/12/09 03:30:17;;;;;;;14.65;6.35;;;;;;;-4.80;100.00;97704.19;4988947;28;20027;-74
2022/12/09 03:32:43;;;;;;;12.15;5.78;;;;;;;-4.60;100.00;97715.63;4993599;28;20030;-74
2022/12/09 03:35:23;;;;;;;15.52;7.43;;;;;;;-4.55;100.00;97708.97;4992851;28;20388;-75
2022/12/09 03:37:50;;;;;;;27.25;10.63;;;;;;;-4.62;100.00;97708.66;4989173;28;20057;-75
2022/12/09 03:40:21;;;;;;;21.17;10.63;;;;;;;-4.79;100.00;97693.50;4992513;28;20018;-75
2022/12/09 03:42:52;;;;;;;21.45;10.55;;;;;;;-4.55;100.00;97719.53;5000059;28;20395;-73
2022/12/09 03:45:19;;;;;;;22.88;9.57;;;;;;;-4.77;100.00;97690.72;4996048;28;20018;-74
2022/12/09 03:47:44;;;;;;;21.00;8.30;;;;;;;-4.92;100.00;97670.00;4986683;28;20026;-75
2022/12/09 03:50:11;;;;;;;20.67;8.35;;;;;;;-4.86;100.00;97708.19;4991239;28;20099;-75
2022/12/09 03:52:47;;;;;;;18.58;8.23;;;;;;;-4.65;100.00;97716.03;4993838;28;20121;-76
2022/12/09 03:55:18;;;;;;;18.20;8.57;;;;;;;-4.62;100.00;97718.41;4994072;28;20030;-75
2022/12/09 03:57:46;;;;;;;26.08;9.57;;;;;;;-4.62;100.00;97705.19;4986561;28;20030;-75
2022/12/09 04:00:12;;;;;;;20.30;9.25;;;;;;;-4.45;100.00;97709.00;4985462;28;20113;-75
2022/12/09 04:02:38;;;;;;;21.77;9.55;;;;;;;-4.38;100.00;97699.53;4992471;28;20547;-74
2022/12/09 04:05:03;;;;;;;21.50;8.95;;;;;;;-4.33;100.00;97697.31;4992849;28;20073;-74
2022/12/09 04:07:29;;;;;;;24.52;9.52;;;;;;;-4.30;100.00;97707.59;4993058;28;20026;-76
2022/12/09 04:09:54;;;;;;;19.55;9.30;;;;;;;-4.30;100.00;97709.41;5000280;28;20025;-75
2022/12/09 04:12:19;;;;;;;19.92;9.50;;;;;;;-4.40;100.00;97690.94;5003840;28;20107;-75
2022/12/09 04:14:45;;;;;;;21.13;9.60;;;;;;;-4.53;100.00;97687.72;4992513;28;20127;-75
2022/12/09 04:17:11;;;;;;;20.63;9.35;;;;;;;-4.66;100.00;97685.34;4989819;28;20054;-75
2022/12/09 04:19:36;;;;;;;22.35;8.52;;;;;;;-4.70;100.00;97708.50;4986969;28;20018;-75
2022/12/09 04:22:01;;;;;;;18.05;8.52;;;;;;;-5.13;100.00;97656.03;5001469;28;20539;-75
2022/12/09 04:24:27;;;;;;;20.75;8.68;;;;;;;-4.87;100.00;97701.25;5004161;28;20253;-75
2022/12/09 04:26:52;;;;;;;16.58;8.00;;;;;;;-4.89;100.00;97684.72;4998012;28;20492;-75
2022/12/09 04:29:17;;;;;;;18.00;8.15;;;;;;;-4.86;100.00;97679.16;4989973;28;20026;-76
2022/12/09 04:31:42;;;;;;;19.25;8.50;;;;;;;-4.86;100.00;97681.81;5017338;28;20383;-75
2022/12/09 04:34:08;;;;;;;17.38;8.18;;;;;;;-4.92;100.00;97691.09;5004020;28;20023;-75
2022/12/09 04:36:33;;;;;;;19.90;7.82;;;;;;;-5.15;100.00;97637.72;4995739;28;20033;-75
2022/12/09 04:38:58;;;;;;;17.83;8.93;;;;;;;-4.99;100.00;97654.84;5000133;28;20073;-75
2022/12/09 04:41:24;;;;;;;18.88;9.40;;;;;;;-4.83;100.00;97676.25;5004093;28;20530;-76
2022/12/09 04:43:49;;;;;;;21.55;9.10;;;;;;;-4.93;100.00;97667.47;5011777;28;20546;-75
2022/12/09 04:46:16;;;;;;;17.98;9.10;;;;;;;-4.78;100.00;97675.84;4991804;28;20111;-75
2022/12/09 04:48:42;;;;;;;21.13;9.65;;;;;;;-4.70;100.00;97678.66;4990249;28;20099;-76
2022/12/09 04:51:09;;;;;;;18.80;8.50;;;;;;;-4.81;100.00;97662.94;4993348;28;20026;-75
2022/12/09 04:53:35;;;;;;;14.55;7.97;;;;;;;-4.87;100.00;97664.31;4998423;28;20030;-79
2022/12/09 04:56:15;;;;;;;13.80;6.20;;;;;;;-6.04;100.00;97487.34;5004752;28;20037;-78
2022/12/09 04:58:51;;;;;;;22.38;8.38;;;;;;;-6.12;100.00;97474.00;4995180;28;20027;-78
2022/12/09 05:01:21;;;;;;;15.73;7.18;;;;;;;-5.41;100.00;97589.88;5004815;28;20053;-78
2022/12/09 05:03:56;;;;;;;14.30;7.65;;;;;;;-5.61;100.00;97540.72;5029153;28;20074;-77
2022/12/09 05:06:24;;;;;;;14.32;7.35;;;;;;;-5.33;100.00;97582.13;4998266;28;20078;-79
2022/12/09 05:08:51;;;;;;;10.57;5.50;;;;;;;-5.68;100.00;97536.97;5013910;28;20046;-79
2022/12/09 05:11:22;;;;;;;17.42;6.93;;;;;;;-4.89;100.00;97630.16;5019117;28;20029;-79
2022/12/09 05:13:54;;;;;;;16.65;6.88;;;;;;;-5.57;100.00;97527.13;4999079;28;20053;-80
2022/12/09 05:16:22;;;;;;;13.38;7.22;;;;;;;-5.57;100.00;97532.41;5004428;28;20054;-79
2022/12/09 05:19:15;;;;;;;15.38;6.22;;;;;;;-5.88;100.00;97455.22;5015063;28;20101;-80
2022/12/09 05:21:42;;;;;;;13.48;6.20;;;;;;;-5.44;100.00;97507.63;5009529;28;20081;-79
2022/12/09 05:24:11;;;;;;;16.83;6.90;;;;;;;-5.77;100.00;97467.44;5009977;28;20027;-79
2022/12/09 05:26:37;;;;;;;;;;;;;;;-4.60;100.00;97616.16;5016887;28;20034;-75
2022/12/09 05:29:02;;;;;;;15.77;7.22;;;;;;;-5.31;100.00;97505.56;5003251;28;19922;-77
2022/12/09 05:31:28;;;;;;;12.75;6.50;;;;;;;-4.57;100.00;97620.34;4985762;28;20086;-79
2022/12/09 05:33:56;;;;;;;22.98;7.15;;;;;;;-5.35;100.00;97481.28;4999173;28;20057;-78
2022/12/09 05:36:23;;;;;;;20.05;9.20;;;;;;;-4.66;100.00;97593.81;5000700;28;20168;-78
2022/12/09 05:38:49;;;;;;;24.80;8.38;;;;;;;-4.67;100.00;97584.22;5002162;28;20041;-75
2022/12/09 05:41:15;;;;;;;16.42;8.68;;;;;;;-4.63;100.00;97601.44;4992813;28;20120;-76
2022/12/09 05:43:41;;;;;;;16.42;7.72;;;;;;;-4.82;100.00;97569.78;4989364;28;20054;-78
2022/12/09 05:46:07;;;;;;;20.52;7.38;;;;;;;-4.85;100.00;97575.31;4986629;28;20472;-77
2022/12/09 05:48:32;;;;;;;16.70;7.13;;;;;;;-4.78;100.00;97607.25;4991032;28;20030;-77
2022/12/09 05:51:00;;;;;;;20.25;6.45;;;;;;;-4.91;100.00;97581.97;4993375;28;20026;-77
2022/12/09 05:53:26;;;;;;;20.73;7.20;;;;;;;-4.83;100.00;97591.84;4993829;28;20084;-77
2022/12/09 05:55:51;;;;;;;24.80;11.15;;;;;;;-4.77;100.00;97590.44;4994545;28;20092;-77
2022/12/09 05:58:17;;;;;;;30.13;14.40;;;;;;;-4.80;100.00;97588.91;5003850;28;20489;-76
2022/12/09 06:00:42;;;;;;;29.00;12.30;;;;;;;-4.99;100.00;97546.69;5002102;28;20029;-76
2022/12/09 06:03:07;;;;;;;27.80;10.75;;;;;;;-4.71;100.00;97589.91;4995814;28;20550;-76
2022/12/09 06:05:33;;;;;;;23.00;11.15;;;;;;;-4.74;100.00;97575.19;4994718;28;20026;-77
2022/12/09 06:07:58;;;;;;;31.48;12.43;;;;;;;-4.71;100.00;97567.00;5002607;28;20018;-77
2022/12/09 06:10:24;;;;;;;27.55;11.80;;;;;;;-4.57;100.00;97586.88;4996017;28;20093;-77
2022/12/09 06:12:53;;;;;;;23.58;10.60;;;;;;;-4.44;100.00;97583.94;4998729;28;20026;-77
2022/12/09 06:15:18;;;;;;;25.20;9.98;;;;;;;-4.79;100.00;97536.97;5012648;28;20040;-76
2022/12/09 06:17:51;;;;;;;18.38;9.05;;;;;;;-4.62;100.00;97574.06;5016771;28;20551;-80
2022/12/09 06:20:17;;;;;;;15.77;6.75;;;;;;;-4.45;100.00;97575.19;5037196;23;20049;-65
2022/12/09 06:22:43;;;;;;;11.90;5.93;;;;;;;-4.56;100.00;97569.22;5013546;28;20052;-65
2022/12/09 06:25:09;;;;;;;14.25;6.20;;;;;;;-4.77;100.00;97556.97;5009450;28;20034;-65
2022/12/09 06:27:34;;;;;;;16.15;6.95;;;;;;;-4.72;100.00;97581.16;5010070;28;20033;-65
2022/12/09 06:30:01;;;;;;;27.80;9.55;;;;;;;-4.82;100.00;97563.66;5013191;28;20034;-65
2022/12/09 06:32:27;;;;;;;25.63;11.10;;;;;;;-4.77;100.00;97577.25;5006132;28;20088;-65
2022/12/09 06:34:52;;;;;;;19.38;9.65;;;;;;;-4.78;100.00;97573.78;5007633;28;20074;-65
2022/12/09 06:37:18;;;;;;;17.25;9.00;;;;;;;-4.67;100.00;97570.19;5011334;28;20120;-65
2022/12/09 06:39:43;;;;;;;15.82;8.38;;;;;;;-4.58;100.00;97576.47;5008596;28;20033;-65
2022/12/09 06:42:08;;;;;;;18.63;8.88;;;;;;;-4.49;100.00;97571.16;5003518;28;20044;-65
2022/12/09 06:44:34;;;;;;;23.02;8.85;;;;;;;-4.45;100.00;97571.72;5008126;28;20216;-65
2022/12/09 06:46:59;;;;;;;20.55;7.65;;;;;;;-4.50;100.00;97579.25;5009514;28;20026;-65
2022/12/09 06:49:25;;;;;;;10.57;5.43;;;;;;;-4.46;100.00;97583.25;5006344;28;20042;-65
2022/12/09 06:51:51;;;;;;;15.38;7.22;;;;;;;-4.44;100.00;97576.03;4997392;28;20487;-65
2022/12/09 06:54:16;;;;;;;13.70;6.88;;;;;;;-4.44;100.00;97578.66;5004654;28;20146;-64
2022/12/09 06:56:41;;;;;;;20.20;7.72;;;;;;;-4.44;100.00;97576.03;5014341;28;20152;-64
2022/12/09 06:59:08;;;;;;;16.92;7.18;;;;;;;-4.43;100.00;97577.69;5006182;28;20029;-65
2022/12/09 07:01:34;;;;;;;16.98;8.00;;;;;;;-4.40;100.00;97585.34;5014059;28;20104;-64
2022/12/09 07:04:03;;;;;;;17.02;8.32;;;;;;;-4.46;100.00;97575.34;5012216;28;20549;-64
2022/12/09 07:06:39;;;;;;;21.60;9.60;;;;;;;-4.42;100.00;97582.84;5013451;28;20025;-64
2022/12/09 07:09:11;;;;;;;18.88;9.43;;;;;;;-4.43;100.00;97589.09;5008819;28;20037;-64
2022/12/09 07:11:37;;;;;;;42.88;11.65;;;;;;;-4.35;100.00;97583.09;5014573;28;20022;-64
2022/12/09 07:14:03;;;;;;;32.25;11.75;;;;;;;-4.33;100.00;97590.88;5008970;28;20478;-65
2022/12/09 07:16:29;;;;;;;21.88;9.45;;;;;;;-4.28;100.00;97584.22;5010541;28;20072;-65
2022/12/09 07:18:54;;;;;;;20.27;9.30;;;;;;;-4.22;100.00;97588.94;5006543;28;20034;-64
2022/12/09 07:21:21;;;;;;;18.08;9.07;;;;;;;-4.15;100.00;97589.22;5007358;28;20033;-65
2022/12/09 07:23:47;;;;;;;16.88;8.63;;;;;;;-4.03;100.00;97581.97;4998191;28;20029;-65
2022/12/09 07:26:13;;;;;;;20.40;8.90;;;;;;;-4.00;100.00;97586.97;5005904;28;20393;-65
2022/12/09 07:28:43;;;;;;;20.30;8.73;;;;;;;-3.93;100.00;97592.50;5022833;28;20401;-66
2022/12/09 07:31:26;;;;;;;19.48;9.10;;;;;;;-3.87;100.00;97589.31;5013992;28;20113;-65
2022/12/09 07:33:53;;;;;;;23.23;9.52;;;;;;;-3.80;100.00;97579.81;5009130;28;20029;-66
2022/12/09 07:36:19;;;;;;;23.85;9.25;;;;;;;-3.74;100.00;97581.91;5003986;28;20022;-65
2022/12/09 07:38:45;;;;;;;18.23;9.13;;;;;;;-3.65;100.00;97574.91;5004066;28;20053;-65
2022/12/09 07:41:16;;;;;;;20.42;10.05;;;;;;;-3.56;100.00;97568.78;5006143;28;20133;-64
2022/12/09 07:43:44;;;;;;;25.48;10.40;;;;;;;-3.48;100.00;97560.09;5001855;28;20052;-64
2022/12/09 07:46:10;;;;;;;22.33;10.70;;;;;;;-3.38;100.00;97561.75;5006809;28;20029;-65
2022/12/09 07:48:35;;;;;;;23.23;10.73;;;;;;;-3.18;100.00;97564.28;5013371;28;20524;-64
2022/12/09 07:51:02;;;;;;;23.58;10.55;;;;;;;-2.96;100.00;97555.94;5007969;28;20033;-56
2022/12/09 07:53:28;;;;;;;21.88;10.30;;;;;;;-2.71;100.00;97561.47;5014829;28;20029;-56
2022/12/09 07:55:54;;;;;;;21.48;10.18;;;;;;;-2.59;100.00;97551.47;5010470;28;20022;-57
2022/12/09 07:58:20;;;;;;;17.92;9.98;;;;;;;-2.58;100.00;97559.28;5014959;28;20370;-56
2022/12/09 08:00:45;;;;;;;18.08;8.90;;;;;;;-2.32;100.00;97561.16;5013428;28;20091;-57
2022/12/09 08:03:12;;;;;;;19.33;10.13;;;;;;;-2.06;100.00;97559.38;5010455;28;20168;-57
2022/12/09 08:05:48;;;;;;;19.52;10.20;;;;;;;-1.77;100.00;97556.44;5029553;28;20018;-56
2022/12/09 08:08:14;;;;;;;16.17;9.13;;;;;;;-1.51;100.00;97552.13;5015156;28;20540;-56
2022/12/09 08:10:39;;;;;;;17.63;9.30;;;;;;;-1.37;100.00;97547.03;5012920;28;20057;-56
2022/12/09 08:13:05;;;;;;;19.23;9.23;;;;;;;-1.41;100.00;97547.53;5011445;28;20064;-56
2022/12/09 08:15:30;;;;;;;20.10;8.57;;;;;;;-1.42;100.00;97536.06;5013514;28;20029;-56
2022/12/09 08:17:56;;;;;;;17.30;9.00;;;;;;;-1.28;100.00;97547.91;5011872;28;20030;-56
2022/12/09 08:20:21;;;;;;;18.98;8.70;;;;;;;-1.15;100.00;97531.53;5012405;28;20029;-56
2022/12/09 08:22:46;;;;;;;24.60;10.07;;;;;;;-1.05;100.00;97536.69;5010294;28;20036;-56
2022/12/09 08:25:12;;;;;;;19.90;9.90;;;;;;;-1.18;100.00;97523.88;5013240;28;20032;-56
2022/12/09 08:27:37;;;;;;;19.13;9.38;;;;;;;-1.12;100.00;97516.13;5013245;28;20032;-57
2022/12/09 08:30:03;;;;;;;21.15;9.60;;;;;;;-1.09;100.00;97517.63;5012715;28;20068;-57
2022/12/09 08:32:29;;;;;;;18.25;9.13;;;;;;;-1.06;100.00;97511.97;5009105;28;20125;-57
2022/12/09 08:34:55;;;;;;;20.20;10.07;;;;;;;-1.10;100.00;97515.97;5012868;28;20116;-57
2022/12/09 08:37:21;;;;;;;18.38;9.68;;;;;;;-0.85;100.00;97514.19;5013184;28;20076;-56
2022/12/09 08:39:46;;;;;;;22.02;10.30;;;;;;;-0.95;100.00;97510.84;5012559;28;20452;-57
2022/12/09 08:42:12;;;;;;;19.95;11.00;;;;;;;-0.96;100.00;97506.53;5008818;28;20118;-57
2022/12/09 08:44:38;;;;;;;22.48;8.93;;;;;;;-0.90;100.00;97504.06;5011811;28;20030;-56
2022/12/09 08:47:19;;;;;;;19.25;9.00;;;;;;;-0.69;100.00;97492.13;5019045;28;20024;-56
2022/12/09 08:49:44;;;;;;;21.40;7.75;;;;;;;-0.35;100.00;97505.25;5006682;28;20022;-56
2022/12/09 08:52:09;;;;;;;13.25;7.00;;;;;;;-0.32;100.00;97507.59;5012698;28;20030;-57
2022/12/09 08:54:35;;;;;;;22.80;9.20;;;;;;;-0.15;100.00;97504.94;5011775;28;20025;-57
2022/12/09 08:57:00;;;;;;;20.58;8.70;;;;;;;-0.11;100.00;97493.78;5012557;28;20101;-57
2022/12/09 08:59:27;;;;;;;21.08;9.65;;;;;;;0.31;100.00;97483.91;5011639;28;20060;-57
2022/12/09 09:01:52;;;;;;;23.05;10.57;;;;;;;0.26;100.00;97475.59;5006374;28;20037;-57
2022/12/09 09:04:19;;;;;;;24.42;11.82;;;;;;;0.13;100.00;97484.97;5020335;28;20033;-57
2022/12/09 09:06:48;;;;;;;23.88;13.05;;;;;;;-0.19;100.00;97492.97;5012831;28;20018;-57
2022/12/09 09:09:14;;;;;;;26.15;11.68;;;;;;;-0.22;100.00;97484.31;5008477;28;20037;-56
2022/12/09 09:11:41;;;;;;;22.90;11.73;;;;;;;-0.21;100.00;97487.81;5012492;28;20038;-56
2022/12/09 09:14:08;;;;;;;30.90;12.45;;;;;;;-0.26;100.00;97490.16;5009230;28;20033;-57
2022/12/09 09:16:34;;;;;;;21.92;11.13;;;;;;;-0.58;100.00;97490.97;4998417;28;20045;-56
2022/12/09 09:19:01;;;;;;;26.58;11.63;;;;;;;-0.92;100.00;97499.91;5027295;23;20035;-72
2022/12/09 09:21:27;;;;;;;29.75;13.18;;;;;;;-0.97;100.00;97496.91;4993719;28;20034;-73
2022/12/09 09:23:53;;;;;;;27.52;12.57;;;;;;;-1.13;100.00;97466.69;5012708;28;20033;-73
2022/12/09 09:26:24;;;;;;;24.58;12.13;;;;;;;-1.08;100.00;97468.03;4994523;28;20122;-72
2022/12/09 09:28:50;;;;;;;23.38;11.43;;;;;;;-0.95;100.00;97484.31;4994708;28;20034;-73
2022/12/09 09:31:19;;;;;;;26.48;14.02;;;;;;;-0.65;100.00;97490.00;4997323;28;20025;-73
2022/12/09 09:33:45;;;;;;;31.15;18.75;;;;;;;-0.63;100.00;97495.97;4989324;28;20405;-73
2022/12/09 09:36:17;;;;;;;37.50;19.75;;;;;;;-0.72;100.00;97498.59;4997874;28;20027;-73
2022/12/09 09:38:43;;;;;;;28.95;12.57;;;;;;;-0.94;100.00;97464.75;5029290;28;20061;-73
2022/12/09 09:41:43;;;;;;;22.33;10.48;;;;;;;-0.89;100.00;97491.63;5003755;28;20442;-73
2022/12/09 09:44:17;;;;;;;20.27;9.80;;;;;;;-1.00;100.00;97483.97;4977618;28;20110;-73
2022/12/09 09:46:45;;;;;;;21.85;11.23;;;;;;;-0.86;100.00;97486.00;4978213;28;20125;-72
2022/12/09 09:49:20;;;;;;;28.55;12.60;;;;;;;-0.99;100.00;97472.38;4993001;28;20039;-72
2022/12/09 09:51:46;;;;;;;27.55;11.85;;;;;;;-0.94;100.00;97470.06;5001617;28;20061;-73
2022/12/09 09:54:14;;;;;;;25.58;12.07;;;;;;;-0.83;100.00;97472.38;5008880;28;20440;-73
2022/12/09 09:56:47;;;;;;;19.48;9.85;;;;;;;-0.81;100.00;97486.34;5015454;28;20032;-72
2022/12/09 09:59:19;;;;;;;22.13;10.98;;;;;;;-0.98;100.00;97439.50;5007395;28;20034;-72
2022/12/09 10:02:11;;;;;;;16.85;9.00;;;;;;;-0.96;100.00;97446.31;4991835;28;20029;-73
2022/12/09 10:04:53;;;;;;;17.05;8.25;;;;;;;-0.71;100.00;97448.97;4978931;28;20097;-73
2022/12/09 10:07:25;;;;;;;15.90;8.32;;;;;;;-0.57;100.00;97455.47;4995621;28;20062;-73
2022/12/09 10:10:02;;;;;;;17.85;7.18;;;;;;;-0.62;100.00;97455.97;4987287;28;20030;-72
2022/12/09 10:12:52;;;;;;;14.02;7.50;;;;;;;-0.47;100.00;97451.66;5006274;28;20034;-72
2022/12/09 10:15:24;;;;;;;11.88;6.68;;;;;;;-0.20;100.00;97443.47;4998528;28;20034;-72
2022/12/09 10:18:07;;;;;;;27.85;8.10;;;;;;;0.07;100.00;97429.78;4992350;28;20030;-73
2022/12/09 10:20:32;;;;;;;23.00;9.05;;;;;;;0.14;100.00;97435.25;5010910;28;20113;-74
2022/12/09 10:23:01;;;;;;;20.10;8.77;;;;;;;0.36;100.00;97441.66;4995016;28;20061;-73
2022/12/09 10:25:35;;;;;;;16.55;7.88;;;;;;;0.34;100.00;97422.38;4996519;28;20284;-73
2022/12/09 10:28:11;;;;;;;22.17;8.73;;;;;;;0.55;100.00;97433.25;4999482;28;20104;-73
2022/12/09 10:30:37;;;;;;;22.95;9.52;;;;;;;0.78;100.00;97419.16;4979517;28;20035;-73
2022/12/09 10:33:02;;;;;;;15.77;8.93;;;;;;;0.84;100.00;97418.47;4994792;28;20033;-73
2022/12/09 10:35:29;;;;;;;12.55;6.78;;;;;;;0.98;100.00;97431.00;4983321;28;20049;-72
2022/12/09 10:38:06;;;;;;;15.48;8.40;;;;;;;1.01;100.00;97414.69;4976476;28;20031;-73
2022/12/09 10:40:55;;;;;;;15.95;8.05;;;;;;;1.14;100.00;97423.91;4985055;28;20032;-74
2022/12/09 10:46:17;;;;;;;15.07;7.55;;;;;;;1.44;100.00;97425.69;4994703;28;19915;-73
2022/12/09 10:48:52;;;;;;;20.60;7.63;;;;;;;1.40;100.00;97423.56;4986177;28;20519;-73
2022/12/09 10:51:26;;;;;;;15.25;7.85;;;;;;;1.39;100.00;97417.41;4996595;28;20034;-73
2022/12/09 10:53:58;;;;;;;16.17;9.18;;;;;;;1.17;100.00;97420.91;4993274;28;20022;-73
2022/12/09 10:56:30;;;;;;;15.23;8.60;;;;;;;0.91;100.00;97413.25;4993368;28;20119;-74
2022/12/09 10:59:16;;;;;;;19.52;10.07;;;;;;;0.99;100.00;97422.00;4994650;28;20065;-74
2022/12/09 11:01:50;;;;;;;19.75;9.82;;;;;;;1.20;100.00;97423.19;5008964;28;20496;-74
2022/12/09 11:04:22;;;;;;;26.92;12.05;;;;;;;1.38;100.00;97415.72;4992325;28;20472;-73
2022/12/09 11:06:47;;;;;;;26.20;10.40;;;;;;;1.51;100.00;97399.94;5004476;28;20057;-73
2022/12/09 11:09:26;;;;;;;21.83;10.50;;;;;;;1.97;100.00;97383.84;4989084;28;20030;-76
2022/12/09 11:11:52;;;;;;;;;;;;;;;2.35;100.00;97390.91;4992459;28;20480;-74
2022/12/09 11:14:33;;;;;;;36.88;14.55;;;;;;;2.71;100.00;97382.91;4989335;28;19914;-76
2022/12/09 11:17:16;;;;;;;31.30;12.77;;;;;;;2.97;100.00;97384.22;5006516;28;20014;-74
2022/12/09 11:19:44;;;;;;;39.92;15.90;;;;;;;3.06;100.00;97372.38;4985950;28;20570;-76
2022/12/09 11:22:27;;;;;;;18.45;10.50;;;;;;;2.64;100.00;97390.00;4995387;28;20034;-76
2022/12/09 11:24:55;;;;;;;26.38;13.20;;;;;;;2.33;100.00;97374.22;4988565;28;20081;-74
2022/12/09 11:27:30;;;;;;;26.88;12.52;;;;;;;2.26;100.00;97384.84;4994071;28;20026;-74
2022/12/09 11:30:05;;;;;;;22.27;11.90;;;;;;;2.17;100.00;97389.47;4987752;28;20113;-73